地図

経路データ

SID SEASON NUMBER BASIN SUBBASIN NAME ISO_TIME NATURE LAT LON WMO_WIND WMO_PRES WMO_AGENCY TRACK_TYPE DIST2LAND LANDFALL IFLAG USA_AGENCY USA_ATCF_ID USA_LAT USA_LON USA_RECORD USA_STATUS USA_WIND USA_PRES USA_SSHS USA_R34_NE USA_R34_SE USA_R34_SW USA_R34_NW USA_R50_NE USA_R50_SE USA_R50_SW USA_R50_NW USA_R64_NE USA_R64_SE USA_R64_SW USA_R64_NW USA_POCI USA_ROCI USA_RMW USA_EYE TOKYO_LAT TOKYO_LON TOKYO_GRADE TOKYO_WIND TOKYO_PRES TOKYO_R50_DIR TOKYO_R50_LONG TOKYO_R50_SHORT TOKYO_R30_DIR TOKYO_R30_LONG TOKYO_R30_SHORT TOKYO_LAND CMA_LAT CMA_LON CMA_CAT CMA_WIND CMA_PRES HKO_LAT HKO_LON HKO_CAT HKO_WIND HKO_PRES NEWDELHI_LAT NEWDELHI_LON NEWDELHI_GRADE NEWDELHI_WIND NEWDELHI_PRES NEWDELHI_CI NEWDELHI_DP NEWDELHI_POCI REUNION_LAT REUNION_LON REUNION_TYPE REUNION_WIND REUNION_PRES REUNION_TNUM REUNION_CI REUNION_RMW REUNION_R34_NE REUNION_R34_SE REUNION_R34_SW REUNION_R34_NW REUNION_R50_NE REUNION_R50_SE REUNION_R50_SW REUNION_R50_NW REUNION_R64_NE REUNION_R64_SE REUNION_R64_SW REUNION_R64_NW BOM_LAT BOM_LON BOM_TYPE BOM_WIND BOM_PRES BOM_TNUM BOM_CI BOM_RMW BOM_R34_NE BOM_R34_SE BOM_R34_SW BOM_R34_NW BOM_R50_NE BOM_R50_SE BOM_R50_SW BOM_R50_NW BOM_R64_NE BOM_R64_SE BOM_R64_SW BOM_R64_NW BOM_ROCI BOM_POCI BOM_EYE BOM_POS_METHOD BOM_PRES_METHOD NADI_LAT NADI_LON NADI_CAT NADI_WIND NADI_PRES WELLINGTON_LAT WELLINGTON_LON WELLINGTON_WIND WELLINGTON_PRES DS824_LAT DS824_LON DS824_STAGE DS824_WIND DS824_PRES TD9636_LAT TD9636_LON TD9636_STAGE TD9636_WIND TD9636_PRES TD9635_LAT TD9635_LON TD9635_WIND TD9635_PRES TD9635_ROCI NEUMANN_LAT NEUMANN_LON NEUMANN_CLASS NEUMANN_WIND NEUMANN_PRES MLC_LAT MLC_LON MLC_CLASS MLC_WIND MLC_PRES USA_GUST BOM_GUST BOM_GUST_PER REUNION_GUST REUNION_GUST_PER USA_SEAHGT USA_SEARAD_NE USA_SEARAD_SE USA_SEARAD_SW USA_SEARAD_NW STORM_SPEED STORM_DIR
1930125N06083 1930 21 NI BB NOT_NAMED 1930-05-05 00:00:00 TS 5.50000 83.4000 main 219 209 _________O____ -1 5.50000 83.4000 TC 34 2 265
1930125N06083 1930 21 NI BB NOT_NAMED 1930-05-05 03:00:00 TS 5.49334 83.3250 main 209 209 _________PO___ -1 5.49001 83.2875 TC 36 5.50000 83.4000 2 2 278
1930125N06083 1930 21 NI BB NOT_NAMED 1930-05-05 06:00:00 TS 5.52000 83.2463 main 200 194 _________OP___ -1 5.50000 83.2000 TC 39 5.55000 83.3158 2 2 297
1930125N06083 1930 21 NI BB NOT_NAMED 1930-05-05 09:00:00 TS 5.56286 83.1865 main 194 184 _________PP___ -1 5.54249 83.1500 TC 42 5.59000 83.2352 2 1 307
1930125N06083 1930 21 NI BB NOT_NAMED 1930-05-05 12:00:00 TS 5.60500 83.1310 main 184 184 _________OP___ -1 5.60000 83.1000 TC 45 5.61000 83.1620 2 1 293
1930125N06083 1930 21 NI BB NOT_NAMED 1930-05-05 15:00:00 TS 5.62125 83.0500 main 184 175 _________PO___ -1 5.64250 83.0000 TC 45 5.60000 83.1000 3 2 280
1930125N06083 1930 21 NI BB NOT_NAMED 1930-05-05 18:00:00 TS 5.63157 82.9745 main 175 166 _________OP___ -1 5.70000 82.9000 TC 45 5.56314 83.0491 3 1 276
1930125N06083 1930 21 NI BB NOT_NAMED 1930-05-05 21:00:00 TS 5.63251 82.9372 main 166 154 _________PP___ -1 5.70998 82.8799 TC 45 5.55504 82.9945 3 2 321
1930125N06083 1930 21 NI BB NOT_NAMED 1930-05-06 00:00:00 TS 5.77220 82.8589 main 154 119 _________OP___ -1 5.90000 82.8000 TC 45 5.64441 82.9177 3 6 333
1930125N06083 1930 21 NI BB NOT_NAMED 1930-05-06 03:00:00 TS 6.18005 82.6576 main 115 59 _________PO___ -1 6.46009 82.5152 TC 45 5.90000 82.8000 3 11 338
1930125N06083 1930 21 NI BB NOT_NAMED 1930-05-06 06:00:00 TS 6.81947 82.4293 main 59 49 _________OP___ -1 7.20000 82.2000 TC 45 6.43894 82.6587 3 14 344
1930125N06083 1930 21 NI BB NOT_NAMED 1930-05-06 09:00:00 TS 7.52612 82.2673 main 55 44 _________PP___ -1 7.91489 82.0647 TC 45 7.13735 82.4698 3 15 346
1930125N06083 1930 21 NI BB NOT_NAMED 1930-05-06 12:00:00 TS 8.24604 82.0605 main 59 55 _________OP___ -1 8.60000 81.9000 TC 45 7.89207 82.2210 3 15 339
1930125N06083 1930 21 NI BB NOT_NAMED 1930-05-06 15:00:00 TS 8.90122 81.7300 main 59 55 _________PO___ -1 9.20244 81.5600 TC 41 8.60000 81.9000 3 14 328
1930125N06083 1930 21 NI BB NOT_NAMED 1930-05-06 18:00:00 TS 9.43578 81.3007 main 55 47 _________OP___ -1 9.70000 81.1000 TC 37 9.17156 81.5014 3 14 317
1930125N06083 1930 21 NI BB NOT_NAMED 1930-05-06 21:00:00 TS 9.89502 80.7992 main 55 45 _________PP___ -1 10.1175 80.5651 TC 33 9.67250 81.0333 3 13 308
1930125N06083 1930 21 NI BB NOT_NAMED 1930-05-07 00:00:00 TS 10.2436 80.2617 main 45 0 _________OP___ -1 10.4000 80.0000 TC 30 10.0872 80.5233 3 12 299
1930125N06083 1930 21 NI BB NOT_NAMED 1930-05-07 03:00:00 TS 10.4687 79.7461 main 0 0 _________PO___ -1 10.5374 79.4923 TC 30 10.4000 80.0000 1 11 289
1930125N06083 1930 21 NI BB NOT_NAMED 1930-05-07 06:00:00 TS 10.5902 79.2389 main 0 0 _________OP___ -1 10.6000 79.0000 TC 30 10.5804 79.4779 1 10 282
1930125N06083 1930 21 NI BB NOT_NAMED 1930-05-07 09:00:00 TS 10.6801 78.7194 main 0 0 _________PP___ -1 10.6925 78.4850 TC 30 10.6677 78.9539 1 10 280
1930125N06083 1930 21 NI BB NOT_NAMED 1930-05-07 12:00:00 TS 10.7605 78.2265 main 0 0 _________OP___ -1 10.8000 78.0000 TC 30 10.7211 78.4530 1 9 281
1930125N06083 1930 21 NI AS NOT_NAMED 1930-05-07 15:00:00 TS 10.8600 77.7812 main 0 0 _________PO___ -1 10.9200 77.5624 TC 30 10.8000 78.0000 1 9 289
1930125N06083 1930 21 NI AS NOT_NAMED 1930-05-07 18:00:00 TS 11.0445 77.3760 main 0 0 _________OP___ -1 11.1000 77.2000 TC 30 10.9889 77.5520 1 9 301
1930125N06083 1930 21 NI AS NOT_NAMED 1930-05-07 21:00:00 TS 11.2987 77.0229 main 0 0 _________PP___ -1 11.3850 76.8826 TC 30 11.2124 77.1631 1 8 313
1930125N06083 1930 21 NI AS NOT_NAMED 1930-05-08 00:00:00 TS 11.5773 76.7838 main 0 0 _________OP___ -1 11.7000 76.7000 TC 30 11.4546 76.8677 1 6 329
1930125N06083 1930 21 NI AS NOT_NAMED 1930-05-08 03:00:00 TS 11.8325 76.6912 main 0 0 _________PO___ -1 11.9649 76.6824 TC 30 11.7000 76.7000 1 5 355
1930125N06083 1930 21 NI AS NOT_NAMED 1930-05-08 06:00:00 TS 12.0725 76.7354 main 0 0 _________OP___ -1 12.2000 76.8000 TC 30 11.9450 76.6708 1 5 20
1930125N06083 1930 21 NI AS NOT_NAMED 1930-05-08 09:00:00 TS 12.3011 76.8697 main 0 0 _________PP___ -1 12.4150 76.9700 TC 30 12.1872 76.7695 1 6 38
1930125N06083 1930 21 NI AS NOT_NAMED 1930-05-08 12:00:00 TS 12.5054 77.0792 main 0 0 _________OP___ -1 12.6000 77.2000 TC 30 12.4107 76.9584 1 6 49
1930125N06083 1930 21 NI AS NOT_NAMED 1930-05-08 15:00:00 TS 12.6862 77.3175 main 0 0 _________PO___ -1 12.7725 77.4350 TC 30 12.6000 77.2000 1 6 57
1930125N06083 1930 21 NI AS NOT_NAMED 1930-05-08 18:00:00 TS 12.8108 77.5640 main 0 0 _________OP___ -1 12.9000 77.7000 TC 30 12.7440 77.4621 1 6 67
1930125N06083 1930 21 NI AS NOT_NAMED 1930-05-08 21:00:00 TS 12.8972 77.8381 main 0 0 _________PP___ -1 12.9676 77.9925 TC 30 12.8503 77.7352 1 6 75
1930125N06083 1930 21 NI BB NOT_NAMED 1930-05-09 00:00:00 TS 12.9544 78.1105 main 0 0 _________OP___ -1 13.0000 78.3000 TC 30 12.9315 78.0157 1 5 77
1930125N06083 1930 21 NI BB NOT_NAMED 1930-05-09 03:00:00 NR 13.0000 78.3000 main 0 __________O___ -1 TC 13.0000 78.3000 1 4 76

IBTrACS Databaseについて

本データベースは、米国NOAAが公開する1842年以降の世界の熱帯低気圧のベストトラックデータアーカイブInternational Best Track Archive for Climate Stewardship (IBTrACS)を、ウェブで閲覧しやすい形式に変換したものです。

最終更新日:2021-10-27